Time;durP1;ratioP1;P1;durP2;ratioP2;P2;SDS_P1;SDS_P2;PMS_P1;PMS_P2;Temp;Humidity;BMP_temperature;BMP_pressure;BME280_temperature;BME280_humidity;BME280_pressure;Samples;Min_cycle;Max_cycle;Signal;HPM_P1;HPM_P2
2022/12/20 00:01:10;;;;;;;152.50;82.20;;;;;;;-1.18;88.70;99790.42;85780;1280;27866;-68
2022/12/20 00:03:11;;;;;;;145.40;79.10;;;;;;;-1.17;88.71;99785.43;86080;1288;22500;-69
2022/12/20 00:05:14;;;;;;;139.20;77.10;;;;;;;-1.18;88.72;99786.45;85792;1287;99235;-70
2022/12/20 00:07:15;;;;;;;135.00;73.10;;;;;;;-1.18;88.77;99786.80;84935;1291;25637;-72
2022/12/20 00:09:17;;;;;;;133.50;76.40;;;;;;;-1.18;88.69;99788.70;85107;1281;25356;-71
2022/12/20 00:11:19;;;;;;;140.60;80.40;;;;;;;-1.18;88.80;99788.86;85011;1280;99084;-71
2022/12/20 00:13:21;;;;;;;142.80;80.00;;;;;;;-1.17;88.67;99793.37;85014;1281;22551;-69
2022/12/20 00:15:22;;;;;;;127.20;67.70;;;;;;;-1.18;88.73;99790.60;85139;1280;24418;-72
2022/12/20 00:17:24;;;;;;;129.90;67.40;;;;;;;-1.18;88.72;99793.02;84833;1284;99281;-70
2022/12/20 00:19:26;;;;;;;153.70;82.30;;;;;;;-1.18;88.66;99795.95;84884;1284;22476;-70
2022/12/20 00:21:29;;;;;;;144.80;76.00;;;;;;;-1.23;88.73;99789.33;85078;1280;22580;-70
2022/12/20 00:23:32;;;;;;;123.70;70.10;;;;;;;-1.22;88.73;99789.16;84793;1284;98769;-70
2022/12/20 00:25:33;;;;;;;136.70;72.40;;;;;;;-1.21;88.63;99792.95;85149;1281;25379;-71
2022/12/20 00:27:35;;;;;;;132.30;69.80;;;;;;;-1.22;88.66;99793.31;85147;1281;22858;-71
2022/12/20 00:29:36;;;;;;;128.60;67.10;;;;;;;-1.22;88.69;99792.96;84934;1288;99090;-71
2022/12/20 00:31:38;;;;;;;134.10;71.40;;;;;;;-1.22;88.61;99794.17;85140;1280;22486;-71
2022/12/20 00:33:44;;;;;;;128.30;72.00;;;;;;;-1.22;88.59;99791.41;84989;1291;24251;-70
2022/12/20 00:35:46;;;;;;;152.00;80.30;;;;;;;-1.22;88.63;99793.83;85895;1288;99190;-71
2022/12/20 00:37:48;;;;;;;132.80;72.80;;;;;;;-1.22;88.71;99794.17;86291;1287;22679;-71
2022/12/20 00:39:51;;;;;;;152.90;82.00;;;;;;;-1.23;88.62;99793.83;85852;1290;23051;-72
2022/12/20 00:41:53;;;;;;;136.60;70.90;;;;;;;-1.22;88.64;99798.98;85933;1287;99630;-71
2022/12/20 00:43:54;;;;;;;134.90;68.20;;;;;;;-1.23;88.61;99800.71;85785;1295;22496;-71
2022/12/20 00:45:57;;;;;;;129.80;70.70;;;;;;;-1.23;88.57;99798.81;85718;1295;22514;-71
2022/12/20 00:47:58;;;;;;;130.20;71.80;;;;;;;-1.23;88.64;99798.81;85017;1289;99135;-71
2022/12/20 00:50:00;;;;;;;116.20;64.40;;;;;;;-1.23;88.62;99803.47;84996;1297;25366;-71
2022/12/20 00:52:02;;;;;;;133.10;69.90;;;;;;;-1.23;88.57;99802.95;85359;1286;23236;-70
2022/12/20 00:54:04;;;;;;;137.90;73.20;;;;;;;-1.23;88.62;99800.54;85155;1288;99079;-71
2022/12/20 00:56:07;;;;;;;138.70;76.20;;;;;;;-1.23;88.70;99798.46;85136;1281;24064;-68
2022/12/20 00:58:09;;;;;;;148.20;80.90;;;;;;;-1.21;88.58;99795.89;85473;1295;23167;-71
2022/12/20 01:00:11;;;;;;;150.70;85.20;;;;;;;-1.21;88.75;99795.04;85458;1288;98817;-72
2022/12/20 01:02:13;;;;;;;119.50;68.00;;;;;;;-1.20;88.65;99789.52;85439;1289;22486;-70
2022/12/20 01:04:15;;;;;;;133.50;71.00;;;;;;;-1.19;88.67;99791.09;86393;1288;22875;-71
2022/12/20 01:06:17;;;;;;;132.30;74.50;;;;;;;-1.18;88.73;99790.77;86420;1287;99224;-71
2022/12/20 01:08:20;;;;;;;126.20;69.00;;;;;;;-1.18;88.69;99785.77;86482;1295;25083;-72
2022/12/20 01:10:22;;;;;;;138.40;75.70;;;;;;;-1.16;88.67;99786.13;85594;1287;22464;-71
2022/12/20 01:12:24;;;;;;;143.60;79.60;;;;;;;-1.15;88.72;99782.00;85568;1290;99069;-71
2022/12/20 01:14:25;;;;;;;139.20;75.40;;;;;;;-1.15;88.79;99778.73;85291;1291;22508;-70
2022/12/20 01:16:31;;;;;;;127.60;70.90;;;;;;;-1.14;88.77;99778.23;84992;1290;23876;-72
2022/12/20 01:18:33;;;;;;;169.30;93.60;;;;;;;-1.15;88.80;99774.77;85345;1288;97996;-71
2022/12/20 01:20:35;;;;;;;135.90;75.00;;;;;;;-1.16;88.79;99774.23;85010;1291;22990;-71
2022/12/20 01:22:37;;;;;;;144.80;78.60;;;;;;;-1.16;88.73;99770.09;85123;1296;22542;-69
2022/12/20 01:24:38;;;;;;;120.60;66.20;;;;;;;-1.15;88.73;99773.90;84755;1289;99109;-72
2022/12/20 01:26:40;;;;;;;63.40;38.90;;;;;;;-1.14;88.83;99769.95;84723;1287;24433;-71
2022/12/20 01:28:45;;;;;;;131.20;71.50;;;;;;;-1.13;88.87;99767.73;84829;1283;25608;-71
2022/12/20 01:30:46;;;;;;;58.30;34.80;;;;;;;-1.13;88.77;99764.44;85308;1295;98763;-70
2022/12/20 01:32:48;;;;;;;115.30;65.80;;;;;;;-1.11;88.90;99765.69;84985;1287;25474;-71
2022/12/20 01:34:50;;;;;;;154.70;74.10;;;;;;;-1.10;88.84;99765.34;85046;1290;28734;-70
2022/12/20 01:36:51;;;;;;;113.10;64.50;;;;;;;-1.10;88.95;99760.35;85069;1295;22503;-70
2022/12/20 01:39:02;;;;;;;142.80;80.10;;;;;;;-1.10;88.89;99756.72;85075;1287;25519;-71
2022/12/20 01:41:04;;;;;;;147.60;79.30;;;;;;;-1.10;88.89;99751.55;84970;1291;99275;-71
2022/12/20 01:43:11;;;;;;;135.90;78.80;;;;;;;-1.10;88.87;99749.14;86254;1281;22474;-71
2022/12/20 01:45:24;;;;;;;136.70;74.50;;;;;;;-1.10;88.87;99748.27;85335;1290;26916;-71
2022/12/20 01:47:31;;;;;;;134.60;77.20;;;;;;;-1.09;88.79;99747.23;85102;1288;99063;-72
2022/12/20 01:49:41;;;;;;;60.20;37.10;;;;;;;-1.09;88.94;99748.63;85071;1290;22441;-71
2022/12/20 01:51:48;;;;;;;26.40;17.90;;;;;;;-1.08;89.02;99741.39;85566;1294;22491;-70
2022/12/20 01:54:03;;;;;;;52.30;34.70;;;;;;;-1.07;89.03;99743.46;85026;1296;102860;-70
2022/12/20 01:56:06;;;;;;;96.40;59.20;;;;;;;-1.06;88.92;99743.32;85130;1293;25677;-70
2022/12/20 01:58:12;;;;;;;20.00;15.50;;;;;;;-1.08;88.96;99745.52;85948;1291;24312;-72
2022/12/20 02:00:15;;;;;;;22.60;15.00;;;;;;;-1.03;89.18;99743.34;85130;1294;99390;-70
2022/12/20 02:02:17;;;;;;;17.00;12.20;;;;;;;-1.00;89.11;99739.57;85069;1289;22825;-70
2022/12/20 02:04:18;;;;;;;22.80;16.60;;;;;;;-0.99;89.06;99742.34;85972;1304;22487;-71
2022/12/20 02:06:23;;;;;;;65.90;40.40;;;;;;;-0.97;89.12;99751.17;85762;1283;99191;-72
2022/12/20 02:08:25;;;;;;;213.20;117.10;;;;;;;-0.99;89.06;99759.60;85701;1290;25366;-70
2022/12/20 02:10:51;;;;;;;159.40;87.00;;;;;;;-0.95;89.21;99773.96;85024;1290;25237;-70
2022/12/20 02:13:03;;;;;;;154.00;90.50;;;;;;;-0.94;89.11;99769.65;85686;1291;25390;-71
2022/12/20 02:15:34;;;;;;;106.40;60.80;;;;;;;-0.94;89.13;99757.23;85882;1289;25453;-72
2022/12/20 02:18:13;;;;;;;146.90;81.00;;;;;;;-0.93;89.35;99756.55;85011;1295;100104;-70
2022/12/20 02:20:49;;;;;;;38.50;25.60;;;;;;;-0.93;89.22;99744.33;85562;1286;22494;-72
2022/12/20 02:22:56;;;;;;;109.40;62.70;;;;;;;-0.92;89.18;99742.08;85176;1287;26285;-71
2022/12/20 02:25:10;;;;;;;50.90;28.70;;;;;;;-0.91;89.17;99739.52;85158;1294;24394;-71
2022/12/20 02:27:18;;;;;;;10.70;8.90;;;;;;;-0.90;89.30;99738.66;84981;1290;22482;-70
2022/12/20 02:29:25;;;;;;;9.10;8.20;;;;;;;-0.89;89.36;99727.64;84975;1294;100529;-71
2022/12/20 02:31:38;;;;;;;10.70;9.30;;;;;;;-0.87;89.27;99730.06;85057;1290;22788;-71
2022/12/20 02:33:47;;;;;;;22.10;16.40;;;;;;;-0.86;89.30;99730.77;85112;1283;22563;-71
2022/12/20 02:35:48;;;;;;;38.00;23.50;;;;;;;-0.84;89.13;99731.79;85267;1297;98331;-71
2022/12/20 02:37:54;;;;;;;16.20;12.80;;;;;;;-0.84;89.21;99727.31;85055;1304;25489;-70
2022/12/20 02:39:55;;;;;;;13.80;11.10;;;;;;;-0.82;89.43;99724.58;85622;1290;22897;-71
2022/12/20 02:42:03;;;;;;;9.60;8.50;;;;;;;-0.81;89.41;99722.52;85090;1280;98954;-71
2022/12/20 02:46:31;;;;;;;18.70;15.30;;;;;;;-0.79;89.42;99708.91;85134;1296;25555;-72
2022/12/20 02:48:36;;;;;;;73.50;42.40;;;;;;;-0.78;89.43;99708.74;84916;1290;99003;-72
2022/12/20 02:50:45;;;;;;;102.40;59.20;;;;;;;-0.77;89.40;99709.27;85249;1294;22484;-72
2022/12/20 02:52:48;;;;;;;107.80;63.00;;;;;;;-0.77;89.51;99705.83;85213;1287;23956;-70
2022/12/20 02:54:50;;;;;;;127.60;75.10;;;;;;;-0.77;89.53;99699.44;84952;1297;98898;-71
2022/12/20 02:56:59;;;;;;;78.70;48.50;;;;;;;-0.76;89.42;99702.02;85101;1296;24347;-70
2022/12/20 02:59:13;;;;;;;32.90;22.50;;;;;;;-0.76;89.49;99708.08;85087;1295;99951;-71
2022/12/20 03:01:29;;;;;;;138.90;77.80;;;;;;;-0.75;89.48;99709.80;85213;1294;22477;-71
2022/12/20 03:03:33;;;;;;;186.80;104.20;;;;;;;-0.75;89.46;99712.41;85062;1297;22998;-70
2022/12/20 03:05:43;;;;;;;150.10;89.40;;;;;;;-0.76;89.60;99705.32;84971;1290;99508;-71
2022/12/20 03:07:44;;;;;;;147.20;84.40;;;;;;;-0.75;89.46;99716.54;85032;1284;22487;-71
2022/12/20 03:09:46;;;;;;;166.00;95.00;;;;;;;-0.75;89.45;99718.79;85090;1295;25380;-67
2022/12/20 03:11:48;;;;;;;205.10;109.90;;;;;;;-0.74;89.42;99716.73;85260;1287;99189;-68
2022/12/20 03:13:50;;;;;;;201.80;107.50;;;;;;;-0.74;89.47;99713.27;85803;1287;23330;-68
2022/12/20 03:15:51;;;;;;;165.90;93.10;;;;;;;-0.74;89.51;99707.41;85801;1291;26792;-68
2022/12/20 03:17:53;;;;;;;161.50;89.90;;;;;;;-0.74;89.51;99704.66;85893;1295;99054;-68
2022/12/20 03:19:55;;;;;;;170.90;96.60;;;;;;;-0.74;89.48;99705.34;85121;1295;22628;-68
2022/12/20 03:21:57;;;;;;;140.90;80.20;;;;;;;-0.74;89.44;99695.69;85115;1287;23328;-68
2022/12/20 03:23:59;;;;;;;93.50;56.70;;;;;;;-0.73;89.56;99689.48;84919;1298;99196;-68
2022/12/20 03:26:00;;;;;;;49.00;32.60;;;;;;;-0.73;89.43;99696.38;85117;1290;24442;-68
2022/12/20 03:28:02;;;;;;;59.20;38.80;;;;;;;-0.72;89.50;99690.52;85059;1288;22614;-68
2022/12/20 03:30:05;;;;;;;155.60;87.80;;;;;;;-0.72;89.61;99692.92;84995;1281;99780;-68
2022/12/20 03:32:07;;;;;;;149.40;87.50;;;;;;;-0.72;89.57;99693.97;85018;1297;22579;-68
2022/12/20 03:34:09;;;;;;;165.80;92.10;;;;;;;-0.71;89.58;99696.04;85989;1295;24321;-68
2022/12/20 03:36:10;;;;;;;193.40;108.30;;;;;;;-0.71;89.61;99693.80;85736;1288;100011;-70
2022/12/20 03:38:12;;;;;;;194.10;103.40;;;;;;;-0.73;89.67;99700.86;85776;1287;22645;-68
2022/12/20 03:40:14;;;;;;;171.40;95.40;;;;;;;-0.75;89.40;99705.48;85876;1295;25689;-70
2022/12/20 03:42:16;;;;;;;164.10;90.40;;;;;;;-0.78;89.51;99693.56;85708;1297;100010;-68
2022/12/20 03:44:18;;;;;;;189.70;98.00;;;;;;;-0.78;89.46;99698.23;85816;1290;23542;-68
2022/12/20 03:46:20;;;;;;;181.60;94.20;;;;;;;-0.81;89.39;99698.20;85926;1294;23302;-69
2022/12/20 03:48:21;;;;;;;149.40;83.00;;;;;;;-0.85;89.37;99690.58;85736;1297;99179;-70
2022/12/20 03:50:23;;;;;;;170.80;93.70;;;;;;;-0.86;89.31;99683.83;85980;1287;22508;-68
2022/12/20 03:52:25;;;;;;;162.10;88.90;;;;;;;-0.88;89.23;99689.15;85954;1293;22593;-69
2022/12/20 03:54:27;;;;;;;166.90;88.30;;;;;;;-0.89;89.31;99690.54;85765;1281;99121;-69
2022/12/20 03:56:28;;;;;;;135.70;75.70;;;;;;;-0.90;89.25;99685.19;85897;1288;22629;-69
2022/12/20 03:58:30;;;;;;;141.70;78.30;;;;;;;-0.91;89.44;99681.39;85887;1291;22475;-70
2022/12/20 04:00:31;;;;;;;149.80;76.10;;;;;;;-0.88;89.25;99670.52;85870;1298;98981;-71
2022/12/20 04:02:33;;;;;;;149.00;82.40;;;;;;;-0.87;89.23;99670.36;85840;1288;25609;-71
2022/12/20 04:04:35;;;;;;;157.90;90.70;;;;;;;-0.87;89.28;99677.79;86076;1287;24262;-71
2022/12/20 04:06:37;;;;;;;158.00;87.90;;;;;;;-0.87;89.31;99680.71;85837;1291;99868;-72
2022/12/20 04:08:38;;;;;;;125.00;74.10;;;;;;;-0.87;89.32;99678.82;85939;1294;22464;-71
2022/12/20 04:13:00;;;;;;;138.10;73.20;;;;;;;-0.86;89.26;99673.13;85993;1294;24381;-72
2022/12/20 04:15:02;;;;;;;123.10;66.20;;;;;;;-0.85;89.35;99674.35;85245;1281;22480;-72
2022/12/20 04:17:04;;;;;;;133.30;75.90;;;;;;;-0.84;89.37;99669.70;85041;1290;98258;-70
2022/12/20 04:19:06;;;;;;;131.70;70.60;;;;;;;-0.89;89.36;99653.26;85220;1287;22498;-71
2022/12/20 04:21:09;;;;;;;136.10;75.40;;;;;;;-0.83;89.27;99661.59;85124;1288;24343;-70
2022/12/20 04:23:11;;;;;;;131.20;74.00;;;;;;;-0.82;89.25;99653.67;85541;1287;98184;-70
2022/12/20 04:25:13;;;;;;;171.90;92.00;;;;;;;-0.81;89.31;99660.75;85099;1283;23842;-71
2022/12/20 04:27:15;;;;;;;168.60;89.60;;;;;;;-0.82;89.17;99657.29;85164;1280;22469;-71
2022/12/20 04:29:16;;;;;;;161.50;88.90;;;;;;;-0.83;89.35;99656.08;85186;1287;99224;-72
2022/12/20 04:31:18;;;;;;;153.50;88.10;;;;;;;-0.86;89.20;99658.13;84754;1289;23874;-70
2022/12/20 04:33:21;;;;;;;180.70;97.50;;;;;;;-0.89;89.20;99659.48;85209;1287;22605;-70
2022/12/20 04:35:22;;;;;;;150.40;84.20;;;;;;;-0.92;89.11;99662.91;85406;1283;99311;-70
2022/12/20 04:37:24;;;;;;;175.10;90.10;;;;;;;-0.92;89.05;99661.35;85353;1289;24450;-72
2022/12/20 04:39:26;;;;;;;179.10;91.60;;;;;;;-0.96;89.07;99657.51;85315;1288;22457;-71
2022/12/20 04:41:27;;;;;;;159.80;87.00;;;;;;;-1.02;89.07;99655.38;85068;1287;99158;-72
2022/12/20 04:43:29;;;;;;;148.80;82.70;;;;;;;-1.06;89.04;99653.63;85407;1281;25923;-72
2022/12/20 04:45:31;;;;;;;169.10;89.50;;;;;;;-1.11;88.80;99656.00;85194;1291;24156;-71
2022/12/20 04:47:32;;;;;;;149.60;82.70;;;;;;;-1.15;88.88;99656.65;85230;1291;98022;-72
2022/12/20 04:49:34;;;;;;;161.50;86.50;;;;;;;-1.17;88.86;99656.62;85131;1284;25821;-71
2022/12/20 04:51:36;;;;;;;158.60;80.30;;;;;;;-1.18;88.88;99657.13;86467;1291;22480;-71
2022/12/20 04:53:47;;;;;;;124.10;71.60;;;;;;;-1.18;88.92;99664.55;86698;1283;99080;-71
2022/12/20 04:55:49;;;;;;;140.40;77.80;;;;;;;-1.15;88.99;99669.56;87150;1281;22436;-72
2022/12/20 04:57:50;;;;;;;147.30;79.20;;;;;;;-1.13;89.06;99673.21;86179;1283;22565;-71
2022/12/20 04:59:52;;;;;;;143.00;81.70;;;;;;;-1.12;89.08;99666.50;86271;1288;99139;-71
2022/12/20 05:01:54;;;;;;;126.10;69.30;;;;;;;-1.10;89.06;99665.66;86328;1281;25662;-71
2022/12/20 05:03:56;;;;;;;117.60;59.40;;;;;;;-1.09;89.07;99663.60;85876;1289;25335;-72
2022/12/20 05:05:57;;;;;;;80.70;43.60;;;;;;;-1.08;89.09;99658.60;86013;1287;99120;-71
2022/12/20 05:07:59;;;;;;;71.30;41.10;;;;;;;-1.07;89.12;99654.14;85935;1287;22524;-71
2022/12/20 05:10:01;;;;;;;62.40;35.70;;;;;;;-1.08;88.99;99651.19;85848;1288;22522;-71
2022/12/20 05:12:02;;;;;;;67.00;37.80;;;;;;;-1.09;89.01;99649.46;85912;1287;98843;-71
2022/12/20 05:14:04;;;;;;;71.70;37.50;;;;;;;-1.09;89.05;99644.28;84953;1283;25741;-71
2022/12/20 05:16:06;;;;;;;75.00;39.90;;;;;;;-1.09;88.97;99646.01;85209;1285;22969;-70
2022/12/20 05:18:08;;;;;;;70.60;41.70;;;;;;;-1.09;89.00;99646.88;85025;1284;97755;-71
2022/12/20 05:20:11;;;;;;;77.30;42.80;;;;;;;-1.10;88.97;99648.08;84966;1291;25292;-72
2022/12/20 05:26:53;;;;;;;69.70;37.80;;;;;;;-1.08;89.00;99645.84;85841;1281;23319;-71
2022/12/20 05:28:55;;;;;;;74.10;41.20;;;;;;;-1.09;88.92;99647.23;85996;1288;25425;-70
2022/12/20 05:30:57;;;;;;;81.00;46.40;;;;;;;-1.08;88.95;99650.68;85064;1287;98659;-72
2022/12/20 05:32:58;;;;;;;73.70;40.10;;;;;;;-1.09;89.00;99652.56;84951;1283;22520;-71
2022/12/20 05:35:00;;;;;;;75.00;40.10;;;;;;;-1.07;89.07;99649.81;85185;1290;22585;-72
2022/12/20 05:37:02;;;;;;;82.90;43.30;;;;;;;-1.06;89.10;99652.23;85175;1287;23798;-71
2022/12/20 05:39:04;;;;;;;94.00;52.50;;;;;;;-1.06;89.05;99655.36;85177;1281;22960;-72
2022/12/20 05:41:07;;;;;;;90.70;52.30;;;;;;;-1.08;89.01;99648.43;84940;1289;99033;-72
2022/12/20 05:43:09;;;;;;;90.10;49.80;;;;;;;-1.11;88.96;99648.59;85409;1284;24055;-72
2022/12/20 05:45:11;;;;;;;92.80;52.70;;;;;;;-1.12;88.93;99646.33;85117;1284;24247;-70
2022/12/20 05:47:12;;;;;;;95.00;53.10;;;;;;;-1.15;88.92;99644.23;85155;1289;98069;-71
2022/12/20 05:49:14;;;;;;;89.10;50.20;;;;;;;-1.16;88.94;99648.17;86009;1284;22637;-71
2022/12/20 05:51:16;;;;;;;94.80;53.40;;;;;;;-1.18;88.94;99644.55;85483;1293;22614;-72
2022/12/20 05:53:18;;;;;;;86.70;52.10;;;;;;;-1.18;88.95;99644.71;85842;1299;99456;-72
2022/12/20 05:55:20;;;;;;;91.80;52.50;;;;;;;-1.19;88.95;99641.25;85997;1294;25218;-70
2022/12/20 05:57:21;;;;;;;88.30;47.80;;;;;;;-1.19;88.95;99640.91;85329;1287;22984;-71
2022/12/20 05:59:23;;;;;;;84.10;49.90;;;;;;;-1.22;88.94;99639.16;85696;1297;98911;-71
2022/12/20 06:01:25;;;;;;;91.10;48.10;;;;;;;-1.24;88.89;99640.52;86065;1287;22529;-71
2022/12/20 06:03:27;;;;;;;83.40;45.30;;;;;;;-1.25;88.86;99641.02;86006;1281;22636;-70
2022/12/20 06:05:28;;;;;;;84.60;45.60;;;;;;;-1.26;88.89;99641.88;86004;1288;97847;-71
2022/12/20 06:07:30;;;;;;;82.00;44.90;;;;;;;-1.26;88.92;99641.19;85861;1281;25296;-71
2022/12/20 06:09:32;;;;;;;76.10;43.00;;;;;;;-1.26;89.00;99636.87;85991;1287;23235;-71
2022/12/20 06:11:34;;;;;;;77.20;44.50;;;;;;;-1.24;89.03;99633.45;85901;1281;98940;-69
2022/12/20 06:13:35;;;;;;;69.40;40.90;;;;;;;-1.23;88.94;99633.63;85253;1287;22589;-71
2022/12/20 06:15:37;;;;;;;86.40;43.30;;;;;;;-1.22;89.00;99635.36;85175;1288;23277;-70
2022/12/20 06:17:39;;;;;;;78.70;43.70;;;;;;;-1.24;88.96;99627.77;85183;1287;98950;-70
2022/12/20 06:19:40;;;;;;;76.90;45.00;;;;;;;-1.26;88.88;99627.91;85189;1288;22601;-70
2022/12/20 06:21:42;;;;;;;82.40;46.90;;;;;;;-1.29;88.90;99625.65;85090;1288;22562;-73
2022/12/20 06:23:43;;;;;;;96.10;48.20;;;;;;;-1.30;88.84;99629.77;85573;1285;98910;-71
2022/12/20 06:25:46;;;;;;;95.40;51.30;;;;;;;-1.32;88.91;99625.10;85787;1288;22486;-71
2022/12/20 06:27:47;;;;;;;89.40;50.80;;;;;;;-1.33;88.89;99628.70;85767;1291;26637;-71
2022/12/20 06:29:53;;;;;;;89.30;49.60;;;;;;;-1.34;88.94;99620.92;85773;1287;99794;-71
2022/12/20 06:31:55;;;;;;;86.40;50.50;;;;;;;-1.37;88.90;99624.17;85756;1281;22513;-70
2022/12/20 06:33:56;;;;;;;106.10;50.50;;;;;;;-1.39;88.84;99617.95;85771;1290;22474;-70
2022/12/20 06:35:58;;;;;;;93.70;49.10;;;;;;;-1.39;88.85;99617.60;85752;1281;99348;-70
2022/12/20 06:38:00;;;;;;;84.70;48.50;;;;;;;-1.40;88.84;99616.20;85209;1281;23809;-68
2022/12/20 06:40:04;;;;;;;82.60;45.50;;;;;;;-1.40;88.91;99615.17;85117;1284;22974;-71
2022/12/20 06:42:05;;;;;;;80.50;46.30;;;;;;;-1.39;88.96;99618.46;85167;1286;97788;-70
2022/12/20 06:44:07;;;;;;;89.20;47.10;;;;;;;-1.37;89.00;99616.93;85077;1284;22470;-70
2022/12/20 06:46:09;;;;;;;97.10;53.60;;;;;;;-1.37;88.92;99625.21;85174;1287;26634;-71
2022/12/20 06:48:11;;;;;;;92.50;51.20;;;;;;;-1.38;88.98;99629.67;85794;1290;99767;-70
2022/12/20 06:50:12;;;;;;;92.30;49.60;;;;;;;-1.39;89.00;99630.17;86006;1283;22592;-71
2022/12/20 06:52:14;;;;;;;87.20;50.50;;;;;;;-1.40;88.95;99626.56;86103;1284;24265;-71
2022/12/20 06:54:16;;;;;;;92.40;53.00;;;;;;;-1.41;88.95;99635.16;85808;1284;98944;-70
2022/12/20 06:56:17;;;;;;;108.30;55.50;;;;;;;-1.39;88.97;99638.96;85896;1289;23817;-71
2022/12/20 06:58:20;;;;;;;111.20;60.10;;;;;;;-1.39;88.97;99641.56;86085;1281;28883;-71
2022/12/20 07:00:22;;;;;;;103.40;60.40;;;;;;;-1.37;89.04;99642.10;86034;1285;99758;-70
2022/12/20 07:02:24;;;;;;;118.80;66.70;;;;;;;-1.36;88.99;99641.93;86055;1283;23465;-70
2022/12/20 07:04:26;;;;;;;116.80;66.10;;;;;;;-1.36;88.99;99631.25;86104;1281;22500;-70
2022/12/20 07:06:28;;;;;;;100.50;56.70;;;;;;;-1.36;88.94;99633.33;86215;1281;98979;-70
2022/12/20 07:08:30;;;;;;;106.70;62.30;;;;;;;-1.35;88.98;99635.05;86079;1286;22480;-71
2022/12/20 07:10:36;;;;;;;115.90;60.00;;;;;;;-1.33;89.06;99638.19;86013;1287;22641;-71
2022/12/20 07:12:38;;;;;;;118.20;66.30;;;;;;;-1.31;89.00;99633.73;85968;1287;99170;-71
2022/12/20 07:14:40;;;;;;;102.40;57.70;;;;;;;-1.29;89.19;99628.04;86096;1291;22494;-71
2022/12/20 07:16:42;;;;;;;104.30;59.10;;;;;;;-1.27;89.11;99624.29;86243;1288;24261;-70
2022/12/20 07:18:47;;;;;;;107.80;59.40;;;;;;;-1.25;89.03;99626.87;85969;1288;97925;-70
2022/12/20 07:20:49;;;;;;;106.80;57.80;;;;;;;-1.24;89.09;99628.09;85820;1291;22487;-71
2022/12/20 07:22:51;;;;;;;91.10;52.80;;;;;;;-1.23;89.07;99628.46;86080;1287;22473;-71
2022/12/20 07:24:52;;;;;;;91.90;46.70;;;;;;;-1.23;89.03;99627.77;85993;1287;99124;-71
2022/12/20 07:26:54;;;;;;;57.30;35.50;;;;;;;-1.22;89.12;99629.67;86011;1287;25170;-71
2022/12/20 07:28:55;;;;;;;67.70;38.10;;;;;;;-1.22;89.10;99627.08;86126;1281;22617;-71
2022/12/20 07:31:01;;;;;;;68.40;37.70;;;;;;;-1.22;89.05;99627.26;86111;1281;97716;-70
2022/12/20 07:33:03;;;;;;;82.40;44.50;;;;;;;-1.22;89.04;99626.73;86117;1287;22508;-70
2022/12/20 07:35:05;;;;;;;80.20;44.60;;;;;;;-1.23;88.96;99627.94;86014;1285;98546;-70
2022/12/20 07:37:07;;;;;;;91.40;50.30;;;;;;;-1.23;89.00;99627.25;86133;1287;22492;-71
2022/12/20 07:39:09;;;;;;;96.20;49.10;;;;;;;-1.23;89.05;99623.80;86106;1284;22587;-71
2022/12/20 07:41:15;;;;;;;90.50;49.10;;;;;;;-1.23;89.09;99627.94;86100;1287;98933;-71
2022/12/20 07:43:17;;;;;;;93.10;52.80;;;;;;;-1.24;89.01;99630.34;86416;1284;22993;-70
2022/12/20 07:45:18;;;;;;;85.80;46.60;;;;;;;-1.25;88.96;99622.23;86040;1284;25432;-71
2022/12/20 07:47:20;;;;;;;82.60;44.20;;;;;;;-1.25;89.01;99624.11;86108;1287;98831;-71
2022/12/20 07:49:22;;;;;;;77.80;45.40;;;;;;;-1.26;88.98;99621.87;85992;1297;24273;-70
2022/12/20 07:51:30;;;;;;;69.50;38.20;;;;;;;-1.26;88.94;99619.98;85886;1290;24903;-69
2022/12/20 07:53:36;;;;;;;62.70;36.30;;;;;;;-1.26;88.98;99618.42;85721;1287;99226;-69
2022/12/20 07:55:40;;;;;;;54.60;32.10;;;;;;;-1.26;89.09;99616.35;85953;1288;24304;-69
2022/12/20 07:57:54;;;;;;;57.60;30.90;;;;;;;-1.26;88.95;99612.56;86092;1287;24235;-70
2022/12/20 07:59:59;;;;;;;53.10;28.80;;;;;;;-1.26;89.05;99609.11;85789;1280;99454;-68
2022/12/20 08:02:01;;;;;;;47.40;27.00;;;;;;;-1.25;89.04;99616.70;86108;1287;22467;-70
2022/12/20 08:04:09;;;;;;;59.60;28.60;;;;;;;-1.24;89.09;99613.27;85858;1288;22559;-70
2022/12/20 08:06:12;;;;;;;51.50;29.90;;;;;;;-1.23;89.04;99611.56;85790;1280;98828;-70
2022/12/20 08:08:15;;;;;;;55.00;28.80;;;;;;;-1.22;89.15;99615.89;85894;1281;22813;-70
2022/12/20 08:10:18;;;;;;;55.40;30.60;;;;;;;-1.21;89.07;99617.95;85844;1287;24794;-70
2022/12/20 08:12:20;;;;;;;47.40;26.80;;;;;;;-1.21;89.06;99608.98;85670;1290;99356;-70
2022/12/20 08:14:22;;;;;;;49.20;27.70;;;;;;;-1.19;89.19;99607.11;86004;1285;24257;-71
2022/12/20 08:16:25;;;;;;;56.80;28.50;;;;;;;-1.18;89.16;99604.19;85829;1284;22474;-70
2022/12/20 08:18:27;;;;;;;55.70;27.80;;;;;;;-1.19;89.10;99607.64;85846;1283;99368;-70
2022/12/20 08:20:28;;;;;;;54.10;28.80;;;;;;;-1.18;89.23;99612.46;86076;1288;25925;-70
2022/12/20 08:22:30;;;;;;;55.10;28.80;;;;;;;-1.16;89.16;99607.98;86126;1288;25244;-70
2022/12/20 08:24:33;;;;;;;54.30;29.30;;;;;;;-1.16;89.12;99608.70;86070;1292;98904;-71
2022/12/20 08:26:40;;;;;;;54.20;28.10;;;;;;;-1.14;89.21;99606.11;86636;1291;23062;-71
2022/12/20 08:28:42;;;;;;;53.40;28.40;;;;;;;-1.12;89.20;99603.73;87372;1288;22482;-71
2022/12/20 08:30:43;;;;;;;49.10;28.10;;;;;;;-1.12;89.22;99604.77;86870;1287;97924;-71
2022/12/20 08:32:45;;;;;;;57.60;29.80;;;;;;;-1.09;89.20;99608.59;86274;1287;25426;-73
2022/12/20 08:34:47;;;;;;;61.40;32.00;;;;;;;-1.08;89.28;99596.86;85865;1289;24297;-71
2022/12/20 08:36:49;;;;;;;54.70;30.20;;;;;;;-1.07;89.35;99594.11;85984;1285;97845;-70
2022/12/20 08:38:51;;;;;;;61.70;30.20;;;;;;;-1.06;89.20;99594.48;85880;1287;22717;-71
2022/12/20 08:40:52;;;;;;;59.20;30.50;;;;;;;-1.04;89.21;99601.38;85964;1285;22533;-70
2022/12/20 08:42:54;;;;;;;55.10;29.50;;;;;;;-1.04;89.30;99602.59;85668;1284;97892;-71
2022/12/20 08:44:56;;;;;;;52.60;30.00;;;;;;;-1.01;89.31;99602.11;85779;1289;25557;-71
2022/12/20 08:46:57;;;;;;;56.90;29.70;;;;;;;-0.99;89.42;99600.91;85897;1288;24357;-71
2022/12/20 08:48:59;;;;;;;60.30;30.10;;;;;;;-0.97;89.28;99598.17;85844;1287;98698;-71
2022/12/20 08:51:05;;;;;;;65.70;33.10;;;;;;;-0.98;89.27;99600.40;85851;1288;22514;-71
2022/12/20 08:53:07;;;;;;;63.80;31.90;;;;;;;-0.98;89.26;99599.73;85644;1296;98487;-72
2022/12/20 08:55:09;;;;;;;66.40;33.70;;;;;;;-0.97;89.37;99595.77;85690;1291;23340;-72
2022/12/20 08:57:10;;;;;;;60.40;32.50;;;;;;;-0.96;89.37;99599.56;86131;1280;24276;-72
2022/12/20 08:59:12;;;;;;;65.20;34.90;;;;;;;-0.94;89.45;99600.44;85933;1289;99586;-71
2022/12/20 09:01:19;;;;;;;70.10;34.20;;;;;;;-0.93;89.48;99601.14;86025;1288;22433;-70
2022/12/20 09:03:21;;;;;;;61.40;32.90;;;;;;;-0.91;89.44;99607.53;85966;1291;23133;-71
2022/12/20 09:05:23;;;;;;;64.90;33.90;;;;;;;-0.90;89.46;99601.34;85995;1288;99050;-69
2022/12/20 09:07:25;;;;;;;67.50;35.40;;;;;;;-0.88;89.46;99602.55;86178;1289;22438;-71
2022/12/20 09:09:27;;;;;;;56.10;29.20;;;;;;;-0.86;89.50;99593.60;86007;1289;22522;-72
2022/12/20 09:11:29;;;;;;;61.30;32.00;;;;;;;-0.83;89.31;99589.65;86031;1293;98852;-72
2022/12/20 09:13:31;;;;;;;51.10;30.20;;;;;;;-0.82;89.52;99590.01;85799;1298;22516;-72
2022/12/20 09:15:34;;;;;;;55.30;29.20;;;;;;;-0.80;89.63;99587.25;85915;1290;25372;-74
2022/12/20 09:17:36;;;;;;;41.00;24.60;;;;;;;-0.78;89.46;99595.56;85946;1287;99352;-71
2022/12/20 09:19:38;;;;;;;39.60;21.60;;;;;;;-0.76;89.61;99595.92;86061;1291;23904;-72
2022/12/20 09:21:40;;;;;;;59.90;31.00;;;;;;;-0.75;89.49;99592.66;86017;1287;24308;-72
2022/12/20 09:23:42;;;;;;;14.90;11.30;;;;;;;-0.75;89.55;99584.02;85912;1287;99272;-71
2022/12/20 09:25:44;;;;;;;62.90;33.60;;;;;;;-0.71;89.56;99583.00;85866;1291;22527;-72
2022/12/20 09:27:45;;;;;;;58.60;31.50;;;;;;;-0.70;89.57;99580.09;86075;1283;22498;-72
2022/12/20 09:29:47;;;;;;;58.80;30.50;;;;;;;-0.68;89.62;99573.55;85875;1287;98847;-72
2022/12/20 09:31:49;;;;;;;64.70;35.80;;;;;;;-0.68;89.69;99570.44;85971;1287;22715;-72
2022/12/20 09:33:55;;;;;;;65.00;32.40;;;;;;;-0.66;89.57;99562.70;85815;1290;24293;-73